createdAt,value
2022-08-14T00:02:44.740Z,20.60
2022-08-14T00:05:44.431Z,23.00
2022-08-14T00:08:45.175Z,20.20
2022-08-14T00:11:43.669Z,18.40
2022-08-14T00:14:41.074Z,19.20
2022-08-14T00:17:48.125Z,18.60
2022-08-14T00:20:51.123Z,19.80
2022-08-14T00:23:54.008Z,17.80
2022-08-14T00:26:52.653Z,19.00
2022-08-14T00:29:51.908Z,19.60
2022-08-14T00:32:52.165Z,19.80
2022-08-14T00:36:36.593Z,17.40
2022-08-14T00:39:12.922Z,21.80
2022-08-14T00:42:52.748Z,21.80
2022-08-14T00:45:30.493Z,19.80
2022-08-14T00:48:34.822Z,22.40
2022-08-14T00:51:38.295Z,17.80
2022-08-14T00:54:38.871Z,20.20
2022-08-14T00:57:38.547Z,20.60
2022-08-14T01:00:47.426Z,19.20
2022-08-14T01:03:52.799Z,26.60
2022-08-14T01:06:55.274Z,20.80
2022-08-14T01:09:58.749Z,22.20
2022-08-14T01:12:56.179Z,24.40
2022-08-14T01:15:58.193Z,19.00
2022-08-14T01:19:19.546Z,22.60
2022-08-14T01:22:19.222Z,23.00
2022-08-14T01:25:16.469Z,23.20
2022-08-14T01:28:34.447Z,24.80
2022-08-14T01:31:37.209Z,24.60
2022-08-14T01:35:17.493Z,25.80
2022-08-14T01:37:56.127Z,25.40
2022-08-14T01:40:54.453Z,26.20
2022-08-14T01:44:02.265Z,19.20
2022-08-14T01:47:05.958Z,24.20
2022-08-14T01:50:03.268Z,24.40
2022-08-14T01:53:02.125Z,25.60
2022-08-14T01:56:00.152Z,26.80
2022-08-14T01:58:58.433Z,23.20
2022-08-14T02:01:59.159Z,23.20
2022-08-14T02:04:57.893Z,22.20
2022-08-14T02:08:09.195Z,21.00
2022-08-14T02:11:24.560Z,24.80
2022-08-14T02:14:31.083Z,22.40
2022-08-14T02:17:30.856Z,23.60
2022-08-14T02:20:34.448Z,28.20
2022-08-14T02:23:36.309Z,25.40
2022-08-14T02:28:19.267Z,25.20
2022-08-14T02:30:00.913Z,27.60
2022-08-14T02:33:01.677Z,25.20
2022-08-14T02:36:05.155Z,25.60
2022-08-14T02:39:17.576Z,25.80
2022-08-14T02:42:23.371Z,26.80
2022-08-14T02:45:22.559Z,24.40
2022-08-14T02:49:03.830Z,25.00
2022-08-14T02:51:38.233Z,25.40
2022-08-14T02:54:35.566Z,27.40
2022-08-14T02:57:40.439Z,29.00
2022-08-14T03:00:39.950Z,28.40
2022-08-14T03:03:38.719Z,20.60
2022-08-14T03:06:58.190Z,23.80
2022-08-14T03:10:28.149Z,24.80
2022-08-14T03:13:13.813Z,27.00
2022-08-14T03:16:26.891Z,26.80
2022-08-14T03:19:24.210Z,22.60
2022-08-14T03:22:22.189Z,28.40
2022-08-14T03:25:22.254Z,29.60
2022-08-14T03:28:33.125Z,18.00
2022-08-14T03:31:31.915Z,28.60
2022-08-14T03:34:52.737Z,28.00
2022-08-14T03:39:11.832Z,28.00
2022-08-14T03:41:03.354Z,27.80
2022-08-14T03:45:30.740Z,25.40
2022-08-14T03:47:20.654Z,26.80
2022-08-14T03:50:27.632Z,37.80
2022-08-14T03:53:28.543Z,24.40
2022-08-14T03:56:30.244Z,29.00
2022-08-14T03:59:28.759Z,26.00
2022-08-14T04:02:32.416Z,26.40
2022-08-14T04:05:42.560Z,28.60
2022-08-14T04:08:40.373Z,27.20
2022-08-14T04:11:40.210Z,27.80
2022-08-14T04:14:38.077Z,27.60
2022-08-14T04:17:35.484Z,30.00
2022-08-14T04:20:35.620Z,27.40
2022-08-14T04:23:57.374Z,27.00
2022-08-14T04:26:55.766Z,28.60
2022-08-14T04:29:53.094Z,27.80
2022-08-14T04:32:57.641Z,26.60
2022-08-14T04:36:01.497Z,31.20
2022-08-14T04:39:18.314Z,31.60
2022-08-14T04:42:34.282Z,27.40
2022-08-14T04:45:36.415Z,27.40
2022-08-14T04:48:43.192Z,30.40
2022-08-14T04:51:55.899Z,27.60
2022-08-14T04:54:54.453Z,27.60
2022-08-14T04:57:52.893Z,29.80
2022-08-14T05:00:51.047Z,24.60
2022-08-14T05:03:50.546Z,30.40
2022-08-14T05:06:50.605Z,26.00
2022-08-14T05:09:51.414Z,24.60
2022-08-14T05:13:14.049Z,25.80
2022-08-14T05:16:07.688Z,37.80
2022-08-14T05:19:18.784Z,33.40
2022-08-14T05:22:22.629Z,33.00
2022-08-14T05:25:20.853Z,34.00
2022-08-14T05:28:23.625Z,33.80
2022-08-14T05:31:21.587Z,36.60
2022-08-14T05:34:18.083Z,26.00
2022-08-14T05:37:16.829Z,35.20
2022-08-14T05:40:14.661Z,28.00
2022-08-14T05:43:12.599Z,30.00
2022-08-14T05:46:15.251Z,30.20
2022-08-14T05:49:12.403Z,30.40
2022-08-14T05:52:10.554Z,29.80
2022-08-14T05:55:15.598Z,23.00
2022-08-14T05:58:14.788Z,32.20
2022-08-14T06:01:14.749Z,31.40
2022-08-14T06:04:12.581Z,37.80
2022-08-14T06:07:09.621Z,34.00
2022-08-14T06:10:07.559Z,29.40
2022-08-14T06:13:05.175Z,34.60
2022-08-14T06:16:02.818Z,34.60
2022-08-14T06:19:03.409Z,25.80
2022-08-14T06:22:02.856Z,32.60
2022-08-14T06:25:00.540Z,32.00
2022-08-14T06:28:03.780Z,35.40
2022-08-14T06:31:01.422Z,30.20
2022-08-14T06:35:02.364Z,33.20
2022-08-14T06:37:17.118Z,30.60
2022-08-14T06:40:25.552Z,30.20
2022-08-14T06:43:29.834Z,31.00
2022-08-14T06:46:34.467Z,28.60
2022-08-14T06:49:40.588Z,29.40
2022-08-14T06:52:42.365Z,27.80
2022-08-14T06:55:56.138Z,33.80
2022-08-14T06:58:55.350Z,31.40
2022-08-14T07:02:13.499Z,30.00
2022-08-14T07:05:33.169Z,28.20
2022-08-14T07:08:31.990Z,26.60
2022-08-14T07:11:29.687Z,30.00
2022-08-14T07:14:27.289Z,26.80
2022-08-14T07:17:24.151Z,21.40
2022-08-14T07:20:30.627Z,29.60
2022-08-14T07:23:31.142Z,26.80
2022-08-14T07:26:29.465Z,22.60
2022-08-14T07:29:26.497Z,25.60
2022-08-14T07:32:33.772Z,27.40
2022-08-14T07:35:43.068Z,25.40
2022-08-14T07:38:52.400Z,24.00
2022-08-14T07:41:49.693Z,23.80
2022-08-14T07:44:48.998Z,24.00
2022-08-14T07:47:47.535Z,22.20
2022-08-14T07:50:46.224Z,25.80
2022-08-14T07:53:44.909Z,27.60
2022-08-14T07:56:49.005Z,22.80
2022-08-14T07:59:49.504Z,21.80
2022-08-14T08:02:53.034Z,24.20
2022-08-14T08:05:53.457Z,23.80
2022-08-14T08:09:01.404Z,21.20
2022-08-14T08:12:04.948Z,24.40
2022-08-14T08:15:07.353Z,20.20
2022-08-14T08:18:05.533Z,24.60
2022-08-14T08:21:02.427Z,21.80
2022-08-14T08:23:59.602Z,21.60
2022-08-14T08:26:57.255Z,22.40
2022-08-14T08:30:10.169Z,22.20
2022-08-14T08:33:09.085Z,22.60
2022-08-14T08:36:12.710Z,22.20
2022-08-14T08:39:23.069Z,20.20
2022-08-14T08:42:31.450Z,21.60
2022-08-14T08:45:36.305Z,21.20
2022-08-14T08:52:04.283Z,23.20
2022-08-14T08:55:04.518Z,21.60
2022-08-14T08:58:12.562Z,21.20
2022-08-14T09:01:13.808Z,23.80
2022-08-14T09:04:14.959Z,22.80
2022-08-14T09:07:15.031Z,21.25
2022-08-14T09:10:12.948Z,18.50
2022-08-14T09:13:15.765Z,23.00
2022-08-14T09:16:18.894Z,20.40
2022-08-14T09:19:16.731Z,21.00
2022-08-14T09:22:35.962Z,20.40
2022-08-14T09:26:00.041Z,22.25
2022-08-14T09:28:49.917Z,20.75
2022-08-14T09:31:53.290Z,22.25
2022-08-14T09:35:08.521Z,20.75
2022-08-14T09:38:43.047Z,16.25
2022-08-14T09:42:20.351Z,20.00
2022-08-14T09:45:52.807Z,20.25
2022-08-14T09:49:06.454Z,16.25
2022-08-14T09:52:33.279Z,19.25
2022-08-14T09:55:41.549Z,21.25
2022-08-14T09:58:43.950Z,21.75
2022-08-14T10:01:41.730Z,20.00
2022-08-14T10:04:46.029Z,21.50
2022-08-14T10:07:53.944Z,22.25
2022-08-14T10:11:02.393Z,19.50
2022-08-14T10:14:34.966Z,17.25
2022-08-14T10:17:38.461Z,16.50
2022-08-14T10:20:48.273Z,17.50
2022-08-14T10:23:49.860Z,19.25
2022-08-14T10:27:00.584Z,18.75
2022-08-14T10:30:04.423Z,18.75
2022-08-14T10:33:01.903Z,19.50
2022-08-14T10:36:03.803Z,17.50
2022-08-14T10:39:06.228Z,20.00
2022-08-14T10:42:16.454Z,19.25
2022-08-14T10:45:22.850Z,18.75
2022-08-14T10:48:34.611Z,23.00
2022-08-14T10:51:39.747Z,18.50
2022-08-14T10:54:42.100Z,21.50
2022-08-14T10:57:51.150Z,20.75
2022-08-14T11:00:58.507Z,25.50
2022-08-14T11:03:57.267Z,21.75
2022-08-14T11:06:57.478Z,20.50
2022-08-14T11:09:59.277Z,20.75
2022-08-14T11:12:57.088Z,21.25
2022-08-14T11:15:56.342Z,19.25
2022-08-14T11:18:55.867Z,19.50
2022-08-14T11:21:57.345Z,22.25
2022-08-14T11:24:56.533Z,20.75
2022-08-14T11:27:56.596Z,18.25
2022-08-14T11:30:54.679Z,17.25
2022-08-14T11:33:55.427Z,17.50
2022-08-14T11:37:04.346Z,21.50
2022-08-14T11:40:24.280Z,19.75
2022-08-14T11:43:29.615Z,19.00
2022-08-14T11:46:30.217Z,19.75
2022-08-14T11:49:35.177Z,18.00
2022-08-14T11:52:40.234Z,19.00
2022-08-14T11:55:39.131Z,22.00
2022-08-14T11:58:37.418Z,7.75
2022-08-14T12:01:38.114Z,19.00
2022-08-14T12:04:51.739Z,26.00
2022-08-14T12:07:49.963Z,18.50
2022-08-14T12:10:46.797Z,20.25
2022-08-14T12:13:44.947Z,18.75
2022-08-14T12:17:11.836Z,17.25
2022-08-14T12:20:11.639Z,19.00
2022-08-14T12:23:25.431Z,18.50
2022-08-14T12:26:39.049Z,18.00
2022-08-14T12:29:38.069Z,22.50
2022-08-14T12:32:47.192Z,22.75
2022-08-14T12:35:45.034Z,20.25
2022-08-14T12:38:43.904Z,20.25
2022-08-14T12:41:42.153Z,20.00
2022-08-14T12:44:43.058Z,18.00
2022-08-14T12:47:40.977Z,19.50
2022-08-14T12:50:42.025Z,19.75
2022-08-14T12:53:39.982Z,22.25
2022-08-14T12:56:37.235Z,21.50
2022-08-14T12:59:37.254Z,17.50
2022-08-14T13:02:45.881Z,19.25
2022-08-14T13:05:43.748Z,22.50
2022-08-14T13:08:46.477Z,17.50
2022-08-14T13:11:58.997Z,22.00
2022-08-14T13:15:14.857Z,16.25
2022-08-14T13:18:13.628Z,16.50
2022-08-14T13:21:13.721Z,18.25
2022-08-14T13:24:14.357Z,19.60
2022-08-14T13:27:12.439Z,17.00
2022-08-14T13:30:14.448Z,20.75
2022-08-14T13:33:21.695Z,17.75
2022-08-14T13:36:23.936Z,19.25
2022-08-14T13:39:37.781Z,16.00
2022-08-14T13:42:37.001Z,14.00
2022-08-14T13:46:00.526Z,19.75
2022-08-14T13:48:51.560Z,19.75
2022-08-14T13:51:50.578Z,14.00
2022-08-14T13:54:55.303Z,17.50
2022-08-14T13:58:03.476Z,21.75
2022-08-14T14:01:01.586Z,16.00
2022-08-14T14:03:58.802Z,17.25
2022-08-14T14:06:55.929Z,18.25
2022-08-14T14:09:53.346Z,19.00
2022-08-14T14:12:56.065Z,18.75
2022-08-14T14:15:58.857Z,20.25
2022-08-14T14:18:56.312Z,17.00
2022-08-14T14:21:55.609Z,19.00
2022-08-14T14:24:53.195Z,16.25
2022-08-14T14:27:53.468Z,16.75
2022-08-14T14:30:53.288Z,18.25
2022-08-14T14:33:52.940Z,13.75
2022-08-14T14:36:56.034Z,19.25
2022-08-14T14:40:53.144Z,14.25
2022-08-14T14:43:11.133Z,16.25
2022-08-14T14:46:09.306Z,13.00
2022-08-14T14:49:08.024Z,17.75
2022-08-14T14:52:08.630Z,15.75
2022-08-14T14:55:07.187Z,17.00
2022-08-14T14:58:05.273Z,18.00
2022-08-14T15:01:08.700Z,18.60
2022-08-14T15:04:20.270Z,17.60
2022-08-14T15:07:20.123Z,17.75
2022-08-14T15:10:26.783Z,17.25
2022-08-14T15:13:28.204Z,15.50
2022-08-14T15:16:31.087Z,16.50
2022-08-14T15:19:29.732Z,16.60
2022-08-14T15:22:29.187Z,18.60
2022-08-14T15:25:29.984Z,19.00
2022-08-14T15:28:28.060Z,17.50
2022-08-14T15:31:37.206Z,16.75
2022-08-14T15:34:46.169Z,18.25
2022-08-14T15:37:55.511Z,16.25
2022-08-14T15:40:56.143Z,13.00
2022-08-14T15:43:54.180Z,18.25
2022-08-14T15:46:55.234Z,20.00
2022-08-14T15:49:56.306Z,15.00
2022-08-14T15:52:57.075Z,9.50
2022-08-14T15:55:54.774Z,14.75
2022-08-14T15:58:52.126Z,16.25
2022-08-14T16:01:54.456Z,16.00
2022-08-14T16:04:52.613Z,10.50
2022-08-14T16:07:52.470Z,16.75
2022-08-14T16:10:53.023Z,15.25
2022-08-14T16:13:50.112Z,17.20
2022-08-14T16:16:51.464Z,13.25
2022-08-14T16:19:57.241Z,14.50
2022-08-14T16:23:00.238Z,16.75
2022-08-14T16:26:01.789Z,14.75
2022-08-14T16:29:15.520Z,15.50
2022-08-14T16:32:32.758Z,13.50
2022-08-14T16:35:42.942Z,15.75
2022-08-14T16:38:53.837Z,17.00
2022-08-14T16:41:58.543Z,13.75
2022-08-14T16:44:56.258Z,18.75
2022-08-14T16:47:53.056Z,14.25
2022-08-14T16:50:51.064Z,13.00
2022-08-14T16:53:48.099Z,12.25
2022-08-14T16:56:45.085Z,13.75
2022-08-14T16:59:51.977Z,13.25
2022-08-14T17:02:59.911Z,15.00
2022-08-14T17:05:57.005Z,13.00
2022-08-14T17:08:56.925Z,13.25
2022-08-14T17:12:00.369Z,15.00
2022-08-14T17:15:15.096Z,16.00
2022-08-14T17:18:14.944Z,15.50
2022-08-14T17:21:26.701Z,16.75
2022-08-14T17:24:56.645Z,14.50
2022-08-14T17:27:46.448Z,16.00
2022-08-14T17:30:49.696Z,13.50
2022-08-14T17:33:52.458Z,11.25
2022-08-14T17:36:53.902Z,17.25
2022-08-14T17:40:15.006Z,14.00
2022-08-14T17:43:13.330Z,15.25
2022-08-14T17:46:11.852Z,16.00
2022-08-14T17:49:15.422Z,18.00
2022-08-14T17:52:19.003Z,15.25
2022-08-14T17:56:01.616Z,14.50
2022-08-14T17:58:50.418Z,13.25
2022-08-14T18:01:49.547Z,16.75
2022-08-14T18:04:46.943Z,16.50
2022-08-14T18:07:59.484Z,14.00
2022-08-14T18:11:07.026Z,11.00
2022-08-14T18:14:09.179Z,11.25
2022-08-14T18:17:26.054Z,15.00
2022-08-14T18:21:24.010Z,16.50
2022-08-14T18:23:42.324Z,16.25
2022-08-14T18:26:39.146Z,15.75
2022-08-14T18:29:54.500Z,15.00
2022-08-14T18:32:54.884Z,18.00
2022-08-14T18:35:59.101Z,15.50
2022-08-14T18:39:21.558Z,14.50
2022-08-14T18:42:23.524Z,14.75
2022-08-14T18:45:28.949Z,16.25
2022-08-14T18:48:33.462Z,9.00
2022-08-14T18:51:46.895Z,14.00
2022-08-14T18:54:48.445Z,13.00
2022-08-14T18:57:58.227Z,14.50
2022-08-14T19:00:58.641Z,15.25
2022-08-14T19:03:57.444Z,13.25
2022-08-14T19:07:03.374Z,13.00
2022-08-14T19:10:05.983Z,14.50
2022-08-14T19:13:12.175Z,16.50
2022-08-14T19:16:16.973Z,15.75
2022-08-14T19:19:15.403Z,15.75
2022-08-14T19:22:29.751Z,14.50
2022-08-14T19:25:51.637Z,14.00
2022-08-14T19:28:49.458Z,14.50
2022-08-14T19:31:55.731Z,13.25
2022-08-14T19:34:53.805Z,15.00
2022-08-14T19:37:57.300Z,15.75
2022-08-14T19:40:54.231Z,15.50
2022-08-14T19:43:57.050Z,16.00
2022-08-14T19:47:01.323Z,17.25
2022-08-14T19:50:24.334Z,17.00
2022-08-14T19:53:20.072Z,16.75
2022-08-14T19:56:29.004Z,11.75
2022-08-14T19:59:26.570Z,16.50
2022-08-14T20:02:37.496Z,16.00
2022-08-14T20:05:45.890Z,18.00
2022-08-14T20:11:02.482Z,18.00
2022-08-14T20:12:05.289Z,14.00
2022-08-14T20:15:26.305Z,15.50
2022-08-14T20:18:52.010Z,17.00
2022-08-14T20:22:00.692Z,16.75
2022-08-14T20:25:14.065Z,14.50
2022-08-14T20:28:30.343Z,14.25
2022-08-14T20:31:28.231Z,16.25
2022-08-14T20:34:38.158Z,17.25
2022-08-14T20:37:38.767Z,17.75
2022-08-14T20:40:50.421Z,17.00
2022-08-14T20:44:07.332Z,17.50
2022-08-14T20:47:04.238Z,18.00
2022-08-14T20:50:17.056Z,18.75
2022-08-14T20:53:28.855Z,15.75
2022-08-14T20:56:37.960Z,18.00
2022-08-14T20:59:47.039Z,18.25
2022-08-14T21:02:50.273Z,20.75
2022-08-14T21:05:48.140Z,19.50
2022-08-14T21:08:57.107Z,20.25
2022-08-14T21:12:03.191Z,18.50
2022-08-14T21:15:00.073Z,16.00
2022-08-14T21:17:58.131Z,18.50
2022-08-14T21:20:55.433Z,20.50
2022-08-14T21:23:55.832Z,18.50
2022-08-14T21:27:04.353Z,17.00
2022-08-14T21:30:09.815Z,24.25
2022-08-14T21:33:08.992Z,17.25
2022-08-14T21:36:11.285Z,20.50
2022-08-14T21:39:19.648Z,20.00
2022-08-14T21:42:17.470Z,19.75
2022-08-14T21:45:14.643Z,19.25
2022-08-14T21:48:16.827Z,20.25
2022-08-14T21:51:54.430Z,20.25
2022-08-14T21:54:49.431Z,16.75
2022-08-14T21:58:46.390Z,19.25
2022-08-14T22:01:05.523Z,21.00
2022-08-14T22:04:33.243Z,19.00
2022-08-14T22:07:29.224Z,20.25
2022-08-14T22:10:27.470Z,22.25
2022-08-14T22:13:26.730Z,23.00
2022-08-14T22:17:03.474Z,20.00
2022-08-14T22:19:54.904Z,22.25
2022-08-14T22:22:56.067Z,21.50
2022-08-14T22:25:55.189Z,23.00
2022-08-14T22:28:55.691Z,21.50
2022-08-14T22:31:55.689Z,18.40
2022-08-14T22:34:53.184Z,22.60
2022-08-14T22:38:01.804Z,24.20
2022-08-14T22:41:25.760Z,22.50
2022-08-14T22:44:29.010Z,24.80
2022-08-14T22:47:26.447Z,18.75
2022-08-14T22:50:49.027Z,17.75
2022-08-14T22:53:52.573Z,21.00
2022-08-14T22:56:50.757Z,23.40
2022-08-14T22:59:48.815Z,22.40
2022-08-14T23:02:46.741Z,22.00
2022-08-14T23:05:52.655Z,23.00
2022-08-14T23:09:01.840Z,24.20
2022-08-14T23:12:27.351Z,22.20
2022-08-14T23:15:24.669Z,22.40
2022-08-14T23:18:29.748Z,27.20
2022-08-14T23:21:28.849Z,24.80
2022-08-14T23:24:27.076Z,23.00
2022-08-14T23:27:28.422Z,18.60
2022-08-14T23:30:41.603Z,23.75
2022-08-14T23:33:53.138Z,23.80
2022-08-14T23:36:55.366Z,23.40
2022-08-14T23:39:53.903Z,24.50
2022-08-14T23:43:09.481Z,22.40
2022-08-14T23:46:12.722Z,20.75
2022-08-14T23:49:12.609Z,25.20
2022-08-14T23:53:06.098Z,26.00
2022-08-14T23:55:28.535Z,25.00
2022-08-14T23:58:29.520Z,26.60
